createdAt,value
2023-02-17T00:01:12.096Z,13.60
2023-02-17T00:03:39.003Z,13.00
2023-02-17T00:06:10.542Z,13.63
2023-02-17T00:08:37.996Z,15.27
2023-02-17T00:11:04.993Z,15.97
2023-02-17T00:13:31.589Z,15.53
2023-02-17T00:15:58.352Z,12.93
2023-02-17T00:18:25.247Z,12.80
2023-02-17T00:20:51.952Z,14.40
2023-02-17T00:23:18.597Z,12.97
2023-02-17T00:25:45.506Z,13.20
2023-02-17T00:28:12.162Z,14.43
2023-02-17T00:30:39.283Z,12.10
2023-02-17T00:33:06.245Z,15.57
2023-02-17T00:35:33.182Z,10.47
2023-02-17T00:37:59.768Z,14.23
2023-02-17T00:40:26.336Z,13.43
2023-02-17T00:42:54.750Z,11.33
2023-02-17T00:45:21.377Z,11.90
2023-02-17T00:47:47.919Z,11.40
2023-02-17T00:50:14.479Z,14.37
2023-02-17T00:52:41.209Z,12.93
2023-02-17T00:55:08.039Z,12.63
2023-02-17T00:57:34.695Z,11.47
2023-02-17T01:00:01.429Z,10.97
2023-02-17T01:02:28.073Z,11.70
2023-02-17T01:04:54.736Z,11.40
2023-02-17T01:07:21.387Z,10.33
2023-02-17T01:09:47.978Z,10.43
2023-02-17T01:12:14.605Z,11.90
2023-02-17T01:14:41.302Z,10.73
2023-02-17T01:17:07.996Z,9.50
2023-02-17T01:19:34.585Z,10.77
2023-02-17T01:22:01.211Z,9.87
2023-02-17T01:24:27.838Z,9.90
2023-02-17T01:26:54.514Z,8.10
2023-02-17T01:29:21.196Z,9.90
2023-02-17T01:31:47.763Z,11.67
2023-02-17T01:34:14.378Z,9.83
2023-02-17T01:36:40.976Z,11.20
2023-02-17T01:39:07.693Z,9.90
2023-02-17T01:41:34.348Z,11.87
2023-02-17T01:44:15.674Z,8.77
2023-02-17T01:46:50.198Z,8.73
2023-02-17T01:49:34.791Z,13.77
2023-02-17T01:52:10.680Z,10.20
2023-02-17T01:54:45.505Z,9.43
2023-02-17T01:57:16.775Z,9.93
2023-02-17T01:59:45.103Z,8.77
2023-02-17T02:02:12.701Z,7.47
2023-02-17T02:04:43.055Z,8.73
2023-02-17T02:07:15.897Z,8.70
2023-02-17T02:09:50.574Z,9.17
2023-02-17T02:12:24.115Z,11.83
2023-02-17T02:14:51.605Z,12.20
2023-02-17T02:17:41.575Z,12.53
2023-02-17T02:20:37.931Z,10.47
2023-02-17T02:23:40.442Z,8.80
2023-02-17T02:26:28.234Z,9.70
2023-02-17T02:29:36.134Z,8.83
2023-02-17T02:32:05.558Z,10.37
2023-02-17T02:34:39.945Z,10.87
2023-02-17T02:37:15.019Z,8.20
2023-02-17T02:39:47.070Z,10.10
2023-02-17T02:42:18.224Z,11.83
2023-02-17T02:44:44.966Z,8.93
2023-02-17T02:47:49.418Z,8.80
2023-02-17T02:50:21.317Z,9.43
2023-02-17T02:52:52.379Z,9.73
2023-02-17T02:55:32.463Z,10.00
2023-02-17T02:58:22.501Z,12.27
2023-02-17T03:01:02.390Z,8.73
2023-02-17T03:03:41.233Z,9.23
2023-02-17T03:06:21.094Z,8.67
2023-02-17T03:08:55.531Z,10.93
2023-02-17T03:11:33.846Z,9.43
2023-02-17T03:14:12.503Z,12.47
2023-02-17T03:16:41.408Z,12.30
2023-02-17T03:19:10.019Z,15.00
2023-02-17T03:21:46.434Z,10.23
2023-02-17T03:24:13.006Z,14.00
2023-02-17T03:26:39.623Z,10.80
2023-02-17T03:29:06.246Z,11.10
2023-02-17T03:31:33.067Z,12.50
2023-02-17T03:34:00.814Z,12.10
2023-02-17T03:36:27.583Z,11.43
2023-02-17T03:38:54.195Z,14.03
2023-02-17T03:41:20.767Z,16.73
2023-02-17T03:43:47.329Z,10.93
2023-02-17T03:46:15.710Z,17.07
2023-02-17T03:48:42.688Z,15.73
2023-02-17T03:51:13.838Z,16.33
2023-02-17T03:53:41.139Z,15.67
2023-02-17T03:56:08.294Z,16.53
2023-02-17T03:58:35.188Z,12.93
2023-02-17T04:01:01.947Z,20.33
2023-02-17T04:03:28.569Z,18.80
2023-02-17T04:05:55.376Z,15.67
2023-02-17T04:08:22.221Z,22.53
2023-02-17T04:10:56.439Z,20.17
2023-02-17T04:13:23.560Z,17.97
2023-02-17T04:15:50.970Z,26.47
2023-02-17T04:18:18.057Z,18.63
2023-02-17T04:20:45.104Z,17.00
2023-02-17T04:23:14.324Z,18.87
2023-02-17T04:25:41.508Z,19.33
2023-02-17T04:28:08.335Z,19.60
2023-02-17T04:30:35.852Z,21.33
2023-02-17T04:33:02.821Z,23.03
2023-02-17T04:35:29.584Z,18.30
2023-02-17T04:37:56.164Z,20.63
2023-02-17T04:40:23.216Z,15.90
2023-02-17T04:42:49.935Z,16.53
2023-02-17T04:45:16.885Z,19.00
2023-02-17T04:47:43.544Z,20.87
2023-02-17T04:50:10.949Z,16.27
2023-02-17T04:52:37.550Z,17.10
2023-02-17T04:55:05.258Z,22.40
2023-02-17T04:57:31.962Z,19.87
2023-02-17T04:59:58.627Z,19.17
2023-02-17T05:02:28.300Z,19.33
2023-02-17T05:04:55.009Z,23.37
2023-02-17T05:07:22.063Z,23.93
2023-02-17T05:09:48.702Z,20.30
2023-02-17T05:12:15.479Z,19.17
2023-02-17T05:14:42.026Z,18.90
2023-02-17T05:17:08.632Z,22.27
2023-02-17T05:19:35.335Z,22.33
2023-02-17T05:22:01.926Z,24.30
2023-02-17T05:24:28.484Z,26.07
2023-02-17T05:26:55.056Z,17.43
2023-02-17T05:29:21.661Z,23.87
2023-02-17T05:31:48.413Z,19.00
2023-02-17T05:34:15.118Z,20.17
2023-02-17T05:36:41.678Z,22.17
2023-02-17T05:39:08.927Z,17.97
2023-02-17T05:41:35.470Z,19.50
2023-02-17T05:44:02.117Z,15.53
2023-02-17T05:46:28.758Z,18.67
2023-02-17T05:48:55.346Z,20.37
2023-02-17T05:51:21.942Z,20.67
2023-02-17T05:53:48.544Z,18.33
2023-02-17T05:56:15.230Z,14.67
2023-02-17T05:58:41.853Z,20.10
2023-02-17T06:01:12.278Z,14.40
2023-02-17T06:03:38.831Z,14.13
2023-02-17T06:06:07.294Z,14.10
2023-02-17T06:08:35.150Z,15.83
2023-02-17T06:11:01.747Z,18.40
2023-02-17T06:13:28.312Z,14.47
2023-02-17T06:15:54.936Z,12.10
2023-02-17T06:18:21.645Z,12.97
2023-02-17T06:20:48.238Z,14.97
2023-02-17T06:23:14.886Z,15.30
2023-02-17T06:25:41.774Z,17.60
2023-02-17T06:28:08.558Z,13.30
2023-02-17T06:30:35.132Z,11.20
2023-02-17T06:33:01.860Z,16.10
2023-02-17T06:35:28.435Z,12.40
2023-02-17T06:37:55.127Z,13.53
2023-02-17T06:40:22.022Z,14.87
2023-02-17T06:42:48.597Z,11.53
2023-02-17T06:45:15.407Z,8.37
2023-02-17T06:47:41.993Z,13.40
2023-02-17T06:50:09.642Z,10.20
2023-02-17T06:52:36.378Z,9.60
2023-02-17T06:55:03.429Z,10.63
2023-02-17T06:57:30.085Z,11.80
2023-02-17T06:59:56.620Z,14.00
2023-02-17T07:02:23.311Z,11.50
2023-02-17T07:04:49.917Z,11.57
2023-02-17T07:07:16.463Z,11.25
2023-02-17T07:09:43.390Z,11.57
2023-02-17T07:12:10.026Z,10.80
2023-02-17T07:14:36.606Z,10.17
2023-02-17T07:17:03.470Z,7.83
2023-02-17T07:19:30.366Z,9.27
2023-02-17T07:21:57.081Z,10.73
2023-02-17T07:24:23.833Z,8.57
2023-02-17T07:26:50.467Z,9.63
2023-02-17T07:29:17.022Z,6.40
2023-02-17T07:31:43.861Z,8.97
2023-02-17T07:34:10.472Z,7.77
2023-02-17T07:36:37.088Z,13.13
2023-02-17T07:39:04.196Z,11.27
2023-02-17T07:41:32.772Z,8.20
2023-02-17T07:43:59.860Z,11.73
2023-02-17T07:46:27.030Z,10.40
2023-02-17T07:48:55.013Z,11.73
2023-02-17T07:51:22.920Z,18.13
2023-02-17T07:53:51.006Z,18.85
2023-02-17T07:56:21.390Z,18.85
2023-02-17T07:58:48.739Z,19.98
2023-02-17T08:01:18.031Z,16.65
2023-02-17T08:03:45.415Z,15.00
2023-02-17T08:06:23.189Z,16.45
2023-02-17T08:09:09.906Z,16.63
2023-02-17T08:11:56.060Z,10.93
2023-02-17T08:14:24.847Z,11.43
2023-02-17T08:16:51.513Z,11.20
2023-02-17T08:19:18.140Z,15.87
2023-02-17T08:21:44.808Z,16.83
2023-02-17T08:24:12.269Z,14.80
2023-02-17T08:26:39.421Z,17.97
2023-02-17T08:29:06.116Z,14.80
2023-02-17T08:31:35.123Z,14.50
2023-02-17T08:34:04.488Z,11.80
2023-02-17T08:36:31.399Z,14.63
2023-02-17T08:38:58.517Z,17.23
2023-02-17T08:41:32.625Z,14.73
2023-02-17T08:44:01.650Z,15.93
2023-02-17T08:46:29.423Z,15.03
2023-02-17T08:48:56.533Z,18.67
2023-02-17T08:51:25.938Z,17.20
2023-02-17T08:53:54.701Z,16.73
2023-02-17T08:56:25.340Z,21.47
2023-02-17T08:58:52.733Z,20.60
2023-02-17T09:01:20.637Z,17.03
2023-02-17T09:03:49.882Z,14.90
2023-02-17T09:06:17.215Z,17.73
2023-02-17T09:08:44.931Z,16.07
2023-02-17T09:11:12.609Z,14.70
2023-02-17T09:13:39.165Z,14.80
2023-02-17T09:16:06.324Z,15.77
2023-02-17T09:18:33.263Z,15.20
2023-02-17T09:21:04.612Z,13.50
2023-02-17T09:23:31.216Z,15.40
2023-02-17T09:26:10.276Z,17.23
2023-02-17T09:28:38.021Z,17.93
2023-02-17T09:31:29.114Z,18.20
2023-02-17T09:33:56.337Z,13.67
2023-02-17T09:36:26.245Z,14.57
2023-02-17T09:38:54.152Z,15.43
2023-02-17T09:41:34.622Z,12.70
2023-02-17T09:44:02.172Z,14.80
2023-02-17T09:46:36.786Z,13.60
2023-02-17T09:49:10.693Z,14.07
2023-02-17T09:51:51.219Z,14.33
2023-02-17T09:54:23.858Z,17.63
2023-02-17T09:56:52.752Z,13.83
2023-02-17T09:59:34.855Z,15.27
2023-02-17T10:02:07.339Z,10.53
2023-02-17T10:04:41.195Z,14.00
2023-02-17T10:07:11.272Z,14.47
2023-02-17T10:09:51.811Z,19.17
2023-02-17T10:12:25.388Z,16.10
2023-02-17T10:14:55.809Z,14.93
2023-02-17T10:17:50.840Z,13.50
2023-02-17T10:20:25.669Z,11.37
2023-02-17T10:23:15.328Z,10.40
2023-02-17T10:26:10.003Z,11.63
2023-02-17T10:28:59.497Z,13.00
2023-02-17T10:31:41.195Z,11.57
2023-02-17T10:34:31.029Z,10.87
2023-02-17T10:37:02.156Z,10.07
2023-02-17T10:39:49.056Z,10.90
2023-02-17T10:42:30.584Z,11.93
2023-02-17T10:45:04.225Z,8.37
2023-02-17T10:47:31.493Z,7.67
2023-02-17T10:50:01.202Z,8.23
2023-02-17T10:52:39.168Z,8.70
2023-02-17T10:55:22.669Z,9.90
2023-02-17T10:57:54.505Z,10.60
2023-02-17T11:00:21.510Z,11.40
2023-02-17T11:02:51.521Z,9.77
2023-02-17T11:05:33.014Z,5.80
2023-02-17T11:08:07.250Z,8.10
2023-02-17T11:10:37.588Z,7.73
2023-02-17T11:13:29.853Z,8.83
2023-02-17T11:15:56.976Z,7.67
2023-02-17T11:18:28.992Z,7.73
2023-02-17T11:21:08.323Z,6.50
2023-02-17T11:23:36.185Z,8.10
2023-02-17T11:26:10.097Z,6.90
2023-02-17T11:28:37.332Z,8.47
2023-02-17T11:31:04.904Z,9.07
2023-02-17T11:33:39.744Z,9.05
2023-02-17T11:36:08.408Z,7.30
2023-02-17T11:38:45.449Z,10.07
2023-02-17T11:41:12.188Z,8.07
2023-02-17T11:43:39.963Z,6.63
2023-02-17T11:46:06.822Z,5.73
2023-02-17T11:48:54.423Z,4.63
2023-02-17T11:52:03.937Z,7.10
2023-02-17T11:55:03.291Z,5.80
2023-02-17T11:57:49.823Z,5.53
2023-02-17T12:00:26.486Z,6.80
2023-02-17T12:03:17.871Z,5.63
2023-02-17T12:06:00.919Z,6.77
2023-02-17T12:08:48.680Z,5.80
2023-02-17T12:11:27.344Z,6.47
2023-02-17T12:14:31.514Z,5.33
2023-02-17T12:17:34.642Z,5.03
2023-02-17T12:20:37.294Z,6.47
2023-02-17T12:23:18.762Z,7.73
2023-02-17T12:26:01.311Z,4.73
2023-02-17T12:28:33.838Z,3.73
2023-02-17T12:31:31.258Z,3.77
2023-02-17T12:34:13.104Z,4.63
2023-02-17T12:36:41.831Z,6.30
2023-02-17T12:39:15.079Z,4.50
2023-02-17T12:41:48.986Z,5.13
2023-02-17T12:44:35.823Z,3.80
2023-02-17T12:47:30.065Z,4.57
2023-02-17T12:50:19.135Z,3.97
2023-02-17T12:52:50.899Z,3.73
2023-02-17T12:55:20.647Z,4.27
2023-02-17T12:58:00.405Z,3.10
2023-02-17T13:01:09.054Z,7.20
2023-02-17T13:03:37.001Z,6.33
2023-02-17T13:06:36.813Z,5.30
2023-02-17T13:09:21.903Z,3.80
2023-02-17T13:11:48.552Z,5.27
2023-02-17T13:14:29.735Z,4.40
2023-02-17T13:16:56.423Z,5.63
2023-02-17T13:19:35.163Z,5.67
2023-02-17T13:22:02.336Z,5.47
2023-02-17T13:24:34.209Z,3.27
2023-02-17T13:27:32.935Z,3.60
2023-02-17T13:30:02.547Z,6.67
2023-02-17T13:32:31.567Z,6.07
2023-02-17T13:35:17.747Z,4.07
2023-02-17T13:37:46.250Z,5.27
2023-02-17T13:40:15.934Z,4.27
2023-02-17T13:42:51.364Z,3.13
2023-02-17T13:45:31.222Z,2.47
2023-02-17T13:47:59.891Z,2.90
2023-02-17T13:50:35.594Z,2.50
2023-02-17T13:53:19.892Z,4.35
2023-02-17T13:55:46.576Z,5.03
2023-02-17T13:58:13.136Z,5.70
2023-02-17T14:00:43.511Z,3.63
2023-02-17T14:03:28.788Z,4.60
2023-02-17T14:05:57.812Z,1.80
2023-02-17T14:08:29.709Z,2.40
2023-02-17T14:10:57.234Z,5.87
2023-02-17T14:13:24.444Z,3.53
2023-02-17T14:15:57.395Z,2.53
2023-02-17T14:18:39.496Z,2.67
2023-02-17T14:21:09.662Z,3.83
2023-02-17T14:23:48.991Z,1.93
2023-02-17T14:26:38.066Z,2.95
2023-02-17T14:29:08.387Z,2.30
2023-02-17T14:31:39.787Z,0.83
2023-02-17T14:34:11.703Z,1.53
2023-02-17T14:36:39.388Z,2.73
2023-02-17T14:39:08.427Z,1.77
2023-02-17T14:41:35.156Z,2.13
2023-02-17T14:44:01.764Z,2.73
2023-02-17T14:46:28.451Z,1.27
2023-02-17T14:48:55.078Z,1.67
2023-02-17T14:51:24.366Z,2.30
2023-02-17T14:53:52.018Z,3.00
2023-02-17T14:56:26.762Z,3.40
2023-02-17T14:58:54.072Z,1.20
2023-02-17T15:01:22.334Z,1.80
2023-02-17T15:03:49.005Z,2.20
2023-02-17T15:06:18.956Z,2.97
2023-02-17T15:08:49.063Z,3.93
2023-02-17T15:11:20.622Z,2.30
2023-02-17T15:13:47.360Z,3.60
2023-02-17T15:16:14.092Z,1.23
2023-02-17T15:18:40.959Z,1.57
2023-02-17T15:21:32.219Z,1.50
2023-02-17T15:24:00.490Z,8.00
2023-02-17T15:26:28.479Z,3.40
2023-02-17T15:28:56.978Z,3.77
2023-02-17T15:31:25.328Z,2.03
2023-02-17T15:33:59.918Z,1.83
2023-02-17T15:36:28.353Z,8.13
2023-02-17T15:38:55.057Z,2.83
2023-02-17T15:41:25.620Z,5.13
2023-02-17T15:43:53.368Z,2.00
2023-02-17T15:46:21.008Z,1.63
2023-02-17T15:48:52.127Z,3.13
2023-02-17T15:51:19.917Z,4.33
2023-02-17T15:53:47.522Z,2.83
2023-02-17T15:56:19.100Z,5.50
2023-02-17T15:58:48.713Z,8.93
2023-02-17T16:01:29.274Z,5.87
2023-02-17T16:03:57.359Z,1.43
2023-02-17T16:06:28.035Z,6.13
2023-02-17T16:08:55.265Z,3.83
2023-02-17T16:11:23.320Z,1.53
2023-02-17T16:13:51.006Z,2.57
2023-02-17T16:16:24.104Z,3.27
2023-02-17T16:18:51.683Z,4.77
2023-02-17T16:21:18.525Z,2.47
2023-02-17T16:23:45.195Z,3.63
2023-02-17T16:26:36.674Z,3.33
2023-02-17T16:29:17.636Z,1.83
2023-02-17T16:31:45.152Z,4.10
2023-02-17T16:34:23.074Z,7.22
2023-02-17T16:36:52.252Z,5.93
2023-02-17T16:39:21.072Z,5.03
2023-02-17T16:41:48.655Z,2.77
2023-02-17T16:44:17.603Z,4.03
2023-02-17T16:46:48.878Z,5.97
2023-02-17T16:49:32.551Z,6.83
2023-02-17T16:52:07.936Z,4.00
2023-02-17T16:54:35.841Z,2.73
2023-02-17T16:57:02.698Z,5.47
2023-02-17T16:59:29.752Z,4.57
2023-02-17T17:01:56.325Z,10.17
2023-02-17T17:04:22.891Z,2.90
2023-02-17T17:06:51.860Z,4.67
2023-02-17T17:09:21.340Z,3.53
2023-02-17T17:11:47.986Z,9.07
2023-02-17T17:14:15.058Z,4.77
2023-02-17T17:16:44.395Z,6.23
2023-02-17T17:19:13.167Z,12.33
2023-02-17T17:21:39.723Z,7.17
2023-02-17T17:24:06.282Z,2.57
2023-02-17T17:26:39.739Z,1.63
2023-02-17T17:29:08.060Z,4.03
2023-02-17T17:31:34.962Z,11.20
2023-02-17T17:34:01.648Z,8.57
2023-02-17T17:36:35.635Z,1.10
2023-02-17T17:39:05.354Z,3.97
2023-02-17T17:41:32.776Z,5.87
2023-02-17T17:43:59.900Z,11.88
2023-02-17T17:46:29.697Z,5.17
2023-02-17T17:49:01.091Z,9.97
2023-02-17T17:51:30.737Z,3.00
2023-02-17T17:53:57.794Z,10.77
2023-02-17T17:56:27.869Z,4.47
2023-02-17T17:58:55.124Z,6.70
2023-02-17T18:01:22.253Z,3.73
2023-02-17T18:03:49.842Z,3.33
2023-02-17T18:06:18.985Z,7.63
2023-02-17T18:08:48.018Z,4.07
2023-02-17T18:11:17.186Z,8.80
2023-02-17T18:13:47.367Z,8.67
2023-02-17T18:16:14.815Z,1.37
2023-02-17T18:18:41.610Z,6.10
2023-02-17T18:21:08.236Z,6.13
2023-02-17T18:23:34.856Z,4.63
2023-02-17T18:26:01.575Z,4.87
2023-02-17T18:28:28.232Z,7.73
2023-02-17T18:30:56.858Z,3.83
2023-02-17T18:33:23.636Z,3.63
2023-02-17T18:35:50.429Z,10.30
2023-02-17T18:38:17.126Z,6.13
2023-02-17T18:40:43.943Z,6.43
2023-02-17T18:43:10.576Z,9.53
2023-02-17T18:45:37.216Z,4.63
2023-02-17T18:48:03.901Z,7.57
2023-02-17T18:50:33.032Z,7.77
2023-02-17T18:53:00.264Z,4.70
2023-02-17T18:55:26.863Z,5.63
2023-02-17T18:57:54.056Z,2.13
2023-02-17T19:00:20.962Z,2.13
2023-02-17T19:02:47.906Z,4.57
2023-02-17T19:05:14.769Z,11.57
2023-02-17T19:07:41.332Z,0.93
2023-02-17T19:10:08.763Z,9.47
2023-02-17T19:12:35.896Z,3.27
2023-02-17T19:15:02.542Z,8.43
2023-02-17T19:17:29.111Z,7.07
2023-02-17T19:19:55.711Z,1.23
2023-02-17T19:22:22.319Z,4.63
2023-02-17T19:24:53.550Z,5.93
2023-02-17T19:27:20.884Z,5.27
2023-02-17T19:29:47.830Z,9.77
2023-02-17T19:32:14.442Z,6.63
2023-02-17T19:34:41.114Z,3.23
2023-02-17T19:37:07.675Z,6.97
2023-02-17T19:39:35.113Z,2.37
2023-02-17T19:42:03.036Z,2.00
2023-02-17T19:44:31.111Z,3.37
2023-02-17T19:46:58.391Z,2.83
2023-02-17T19:49:25.166Z,7.33
2023-02-17T19:51:53.739Z,7.87
2023-02-17T19:54:20.318Z,2.90
2023-02-17T19:56:48.837Z,5.30
2023-02-17T19:59:15.452Z,4.70
2023-02-17T20:01:43.345Z,4.57
2023-02-17T20:04:10.807Z,4.10
2023-02-17T20:06:45.953Z,3.17
2023-02-17T20:09:20.090Z,5.63
2023-02-17T20:11:48.599Z,1.60
2023-02-17T20:14:15.293Z,6.80
2023-02-17T20:16:41.971Z,3.53
2023-02-17T20:19:08.682Z,5.00
2023-02-17T20:21:38.381Z,2.03
2023-02-17T20:24:05.523Z,5.97
2023-02-17T20:26:37.614Z,3.10
2023-02-17T20:29:04.451Z,3.63
2023-02-17T20:31:31.358Z,4.67
2023-02-17T20:33:57.999Z,7.67
2023-02-17T20:36:25.057Z,2.83
2023-02-17T20:38:51.853Z,8.37
2023-02-17T20:41:20.393Z,2.60
2023-02-17T20:43:47.833Z,5.90
2023-02-17T20:46:19.803Z,3.17
2023-02-17T20:48:46.679Z,5.40
2023-02-17T20:51:13.264Z,8.23
2023-02-17T20:53:39.934Z,3.77
2023-02-17T20:56:37.759Z,6.63
2023-02-17T20:59:06.122Z,6.43
2023-02-17T21:01:32.701Z,2.47
2023-02-17T21:03:59.271Z,3.53
2023-02-17T21:06:28.288Z,4.23
2023-02-17T21:08:58.752Z,3.37
2023-02-17T21:11:25.630Z,6.33
2023-02-17T21:13:52.805Z,9.87
2023-02-17T21:16:26.505Z,5.40
2023-02-17T21:18:53.606Z,6.93
2023-02-17T21:21:20.632Z,2.93
2023-02-17T21:23:47.943Z,2.50
2023-02-17T21:26:15.973Z,1.43
2023-02-17T21:28:43.135Z,1.50
2023-02-17T21:31:10.747Z,2.83
2023-02-17T21:33:41.808Z,5.17
2023-02-17T21:36:10.278Z,3.57
2023-02-17T21:38:37.441Z,3.20
2023-02-17T21:41:10.556Z,3.13
2023-02-17T21:43:57.022Z,3.77
2023-02-17T21:46:24.316Z,9.02
2023-02-17T21:48:53.168Z,3.47
2023-02-17T21:51:20.229Z,1.40
2023-02-17T21:53:47.037Z,0.50
2023-02-17T21:56:14.203Z,1.33
2023-02-17T21:58:44.689Z,6.27
2023-02-17T22:01:11.308Z,3.13
2023-02-17T22:03:37.854Z,3.00
2023-02-17T22:06:17.576Z,5.77
2023-02-17T22:08:44.635Z,4.37
2023-02-17T22:11:31.682Z,6.20
2023-02-17T22:14:01.135Z,2.57
2023-02-17T22:16:31.087Z,7.93
2023-02-17T22:18:57.988Z,5.93
2023-02-17T22:21:24.772Z,2.63
2023-02-17T22:23:51.961Z,3.67
2023-02-17T22:26:21.148Z,6.10
2023-02-17T22:28:48.413Z,3.57
2023-02-17T22:31:17.596Z,5.40
2023-02-17T22:33:44.614Z,2.23
2023-02-17T22:36:13.663Z,2.07
2023-02-17T22:38:40.282Z,2.97
2023-02-17T22:41:09.080Z,4.57
2023-02-17T22:43:37.360Z,7.40
2023-02-17T22:46:04.722Z,4.23
2023-02-17T22:48:32.219Z,2.53
2023-02-17T22:51:03.744Z,5.80
2023-02-17T22:53:30.307Z,0.70
2023-02-17T22:55:57.955Z,5.00
2023-02-17T22:58:26.166Z,7.93
2023-02-17T23:01:08.745Z,1.07
2023-02-17T23:03:35.913Z,2.87
2023-02-17T23:06:05.670Z,2.00
2023-02-17T23:08:32.654Z,3.67
2023-02-17T23:10:59.516Z,8.07
2023-02-17T23:13:26.183Z,3.00
2023-02-17T23:15:52.827Z,1.90
2023-02-17T23:18:20.098Z,11.83
2023-02-17T23:20:48.612Z,5.33
2023-02-17T23:23:15.775Z,2.47
2023-02-17T23:25:47.943Z,3.47
2023-02-17T23:28:14.811Z,4.47
2023-02-17T23:30:42.329Z,2.10
2023-02-17T23:33:09.289Z,5.77
2023-02-17T23:35:44.998Z,7.70
2023-02-17T23:38:12.953Z,3.53
2023-02-17T23:40:40.705Z,2.13
2023-02-17T23:43:07.980Z,1.03
2023-02-17T23:45:37.614Z,4.87
2023-02-17T23:48:05.588Z,2.50
2023-02-17T23:50:33.104Z,2.33
2023-02-17T23:52:59.683Z,0.40
2023-02-17T23:55:26.281Z,2.53
2023-02-17T23:57:52.850Z,4.20
